Time;durP1;ratioP1;P1;durP2;ratioP2;P2;SDS_P1;SDS_P2;PMS_P1;PMS_P2;Temp;Humidity;BMP_temperature;BMP_pressure;BME280_temperature;BME280_humidity;BME280_pressure;Samples;Min_cycle;Max_cycle;Signal;HPM_P1;HPM_P2
2022/01/26 00:00:03;;;;;;;0.10;0.10;;;;;;;;;;5098622;28;20055;-87
2022/01/26 00:07:59;;;;;;;0.10;0.10;;;;;;;;;;5098614;28;20441;-88
2022/01/26 00:10:25;;;;;;;0.10;0.10;;;;;;;;;;5079229;28;20065;-88
2022/01/26 00:12:51;;;;;;;0.10;0.10;;;;;;;;;;5112740;28;20035;-87
2022/01/26 00:15:16;;;;;;;0.10;0.10;;;;;;;;;;5078884;28;20104;-88
2022/01/26 00:17:43;;;;;;;0.10;0.10;;;;;;;;;;5095781;28;20119;-87
2022/01/26 00:20:24;;;;;;;0.10;0.10;;;;;;;;;;5096016;28;20071;-87
2022/01/26 00:41:05;;;;;;;0.00;0.00;;;;;;;;;;5095681;28;20477;-87
2022/01/26 00:43:31;;;;;;;0.10;0.10;;;;;;;;;;5078798;28;20097;-87
2022/01/26 00:45:59;;;;;;;0.10;0.10;;;;;;;;;;5095454;28;20487;-88
2022/01/26 00:48:25;;;;;;;0.10;0.10;;;;;;;;;;5095188;28;20035;-88
2022/01/26 00:50:53;;;;;;;0.10;0.10;;;;;;;;;;5111972;28;20084;-88
2022/01/26 00:53:27;;;;;;;0.20;0.20;;;;;;;;;;5078046;28;20044;-87
2022/01/26 00:55:53;;;;;;;0.10;0.10;;;;;;;;;;5095533;28;20281;-87
2022/01/26 00:58:18;;;;;;;0.10;0.10;;;;;;;;;;5095035;28;20043;-87
2022/01/26 01:00:44;;;;;;;0.10;0.10;;;;;;;;;;5078203;28;20130;-87
2022/01/26 01:03:10;;;;;;;0.10;0.10;;;;;;;;;;5094783;28;20040;-86
2022/01/26 01:05:52;;;;;;;0.10;0.10;;;;;;;;;;5110669;28;20433;-87
2022/01/26 01:08:21;;;;;;;0.10;0.10;;;;;;;;;;5111568;28;20612;-87
2022/01/26 01:10:49;;;;;;;0.10;0.10;;;;;;;;;;5094418;28;20036;-87
2022/01/26 01:13:18;;;;;;;1.67;0.38;;;;;;;;;;5095065;28;20058;-87
2022/01/26 01:15:44;;;;;;;0.10;0.10;;;;;;;;;;5078302;28;20039;-87
2022/01/26 01:18:19;;;;;;;0.00;0.00;;;;;;;;;;5094458;28;20047;-87
2022/01/26 01:34:17;;;;;;;0.40;0.40;;;;;;;;;;5088425;28;20043;-87
2022/01/26 01:36:46;;;;;;;0.10;0.10;;;;;;;;;;5094164;28;20042;-87
2022/01/26 01:39:12;;;;;;;0.17;0.17;;;;;;;;;;5094108;28;20035;-87
2022/01/26 01:41:39;;;;;;;0.10;0.10;;;;;;;;;;5111028;28;20396;-86
2022/01/26 01:44:05;;;;;;;0.55;0.20;;;;;;;;;;5094395;28;20056;-86
2022/01/26 01:46:32;;;;;;;0.00;0.00;;;;;;;;;;5111078;28;20517;-86
2022/01/26 01:48:58;;;;;;;0.10;0.10;;;;;;;;;;5110993;28;20451;-86
2022/01/26 01:51:32;;;;;;;0.00;0.00;;;;;;;;;;5110948;28;20036;-86
2022/01/26 01:53:58;;;;;;;0.00;0.00;;;;;;;;;;5095128;28;20042;-86
2022/01/26 01:56:25;;;;;;;0.10;0.10;;;;;;;;;;5093895;28;20039;-86
2022/01/26 01:58:52;;;;;;;0.10;0.10;;;;;;;;;;5077273;28;20107;-86
2022/01/26 02:01:18;;;;;;;0.10;0.10;;;;;;;;;;5094002;28;20047;-86
2022/01/26 02:03:44;;;;;;;0.10;0.10;;;;;;;;;;5111013;28;20042;-87
2022/01/26 02:06:10;;;;;;;0.10;0.10;;;;;;;;;;5093863;28;20095;-86
2022/01/26 02:08:36;;;;;;;0.10;0.10;;;;;;;;;;5077110;28;20036;-86
2022/01/26 02:11:05;;;;;;;0.10;0.10;;;;;;;;;;5093908;28;20043;-86
2022/01/26 02:13:39;;;;;;;0.10;0.10;;;;;;;;;;5093454;28;20035;-86
2022/01/26 02:18:47;;;;;;;0.10;0.10;;;;;;;;;;5114505;28;20466;-86
2022/01/26 02:21:32;;;;;;;0.10;0.10;;;;;;;;;;5099798;28;20044;-86
2022/01/26 02:57:02;;;;;;;0.10;0.10;;;;;;;;;;5099900;28;20051;-87
2022/01/26 02:59:56;;;;;;;0.10;0.10;;;;;;;;;;5083506;28;20039;-87
2022/01/26 03:02:39;;;;;;;0.10;0.10;;;;;;;;;;5083981;28;20039;-88
2022/01/26 03:05:08;;;;;;;0.10;0.10;;;;;;;;;;5099465;28;20054;-87
2022/01/26 03:07:44;;;;;;;0.10;0.10;;;;;;;;;;5097449;28;20032;-85
2022/01/26 03:11:11;;;;;;;0.10;0.10;;;;;;;;;;5081645;28;20547;-87
2022/01/26 03:13:14;;;;;;;0.40;0.40;;;;;;;;;;5104682;28;20071;-87
2022/01/26 03:15:48;;;;;;;0.20;0.20;;;;;;;;;;5081798;28;20387;-87
2022/01/26 03:21:02;;;;;;;0.10;0.10;;;;;;;;;;5099375;28;20043;-86
2022/01/26 03:31:53;;;;;;;0.10;0.10;;;;;;;;;;5113684;28;20091;-86
2022/01/26 03:34:15;;;;;;;0.15;0.15;;;;;;;;;;5113858;28;20062;-86
2022/01/26 03:36:55;;;;;;;0.10;0.10;;;;;;;;;;5097839;28;20057;-86
2022/01/26 03:39:22;;;;;;;0.00;0.00;;;;;;;;;;5081745;28;20106;-87
2022/01/26 03:41:52;;;;;;;0.30;0.30;;;;;;;;;;5096132;28;20486;-87
2022/01/26 03:44:19;;;;;;;0.10;0.10;;;;;;;;;;5096673;28;20048;-87
2022/01/26 03:46:45;;;;;;;0.10;0.10;;;;;;;;;;5079046;28;20514;-88
2022/01/26 03:49:11;;;;;;;0.00;0.00;;;;;;;;;;5096191;28;20114;-88
2022/01/26 03:51:37;;;;;;;0.45;0.32;;;;;;;;;;5113202;28;20451;-88
2022/01/26 03:54:03;;;;;;;0.10;0.10;;;;;;;;;;5096413;28;20102;-88
2022/01/26 03:56:29;;;;;;;0.10;0.10;;;;;;;;;;5079380;28;20059;-88
2022/01/26 03:58:55;;;;;;;0.10;0.10;;;;;;;;;;5079172;28;20403;-88
2022/01/26 04:01:21;;;;;;;0.10;0.10;;;;;;;;;;5095967;28;20402;-88
2022/01/26 04:03:47;;;;;;;0.10;0.10;;;;;;;;;;5079104;28;20040;-87
2022/01/26 04:06:13;;;;;;;0.10;0.10;;;;;;;;;;5096132;28;20031;-88
2022/01/26 04:08:42;;;;;;;0.10;0.10;;;;;;;;;;5079270;28;20048;-88
2022/01/26 04:13:43;;;;;;;0.10;0.10;;;;;;;;;;5097075;28;20127;-87
2022/01/26 04:16:09;;;;;;;0.30;0.30;;;;;;;;;;5096094;28;20079;-87
2022/01/26 04:18:40;;;;;;;0.10;0.10;;;;;;;;;;5095808;28;20049;-87
2022/01/26 04:21:29;;;;;;;0.15;0.15;;;;;;;;;;5096471;28;20123;-86
2022/01/26 04:24:01;;;;;;;0.00;0.00;;;;;;;;;;5099107;28;20440;-87
2022/01/26 04:26:36;;;;;;;0.00;0.00;;;;;;;;;;5079412;28;20039;-87
2022/01/26 04:29:08;;;;;;;0.20;0.20;;;;;;;;;;5096844;28;20059;-87
2022/01/26 04:31:34;;;;;;;0.00;0.00;;;;;;;;;;5079385;28;20099;-86
2022/01/26 04:34:00;;;;;;;0.10;0.10;;;;;;;;;;5095490;28;20110;-88
2022/01/26 04:36:36;;;;;;;0.10;0.10;;;;;;;;;;5095432;28;20433;-87
2022/01/26 04:39:07;;;;;;;0.10;0.10;;;;;;;;;;5080259;28;20387;-87
2022/01/26 04:41:39;;;;;;;0.85;0.30;;;;;;;;;;5095912;28;20122;-88
2022/01/26 04:44:12;;;;;;;0.00;0.00;;;;;;;;;;5095263;28;20051;-88
2022/01/26 04:46:38;;;;;;;0.60;0.55;;;;;;;;;;5094884;28;20135;-87
2022/01/26 04:49:04;;;;;;;0.10;0.10;;;;;;;;;;5095459;28;20070;-87
2022/01/26 04:51:30;;;;;;;0.10;0.10;;;;;;;;;;5111864;28;20066;-87
2022/01/26 04:53:56;;;;;;;0.10;0.10;;;;;;;;;;5094959;28;20043;-87
2022/01/26 04:56:22;;;;;;;0.10;0.10;;;;;;;;;;5078250;28;20105;-87
2022/01/26 04:58:48;;;;;;;0.10;0.10;;;;;;;;;;5094973;28;20126;-86
2022/01/26 05:01:14;;;;;;;0.10;0.10;;;;;;;;;;5094996;28;20043;-86
2022/01/26 05:03:40;;;;;;;0.10;0.10;;;;;;;;;;5094953;28;20043;-87
2022/01/26 05:06:06;;;;;;;0.68;0.68;;;;;;;;;;5077762;28;20095;-86
2022/01/26 05:08:32;;;;;;;0.10;0.10;;;;;;;;;;5094810;28;20035;-86
2022/01/26 05:10:59;;;;;;;0.10;0.10;;;;;;;;;;5094791;28;20044;-87
2022/01/26 05:13:25;;;;;;;0.10;0.10;;;;;;;;;;5077750;28;20410;-86
2022/01/26 05:15:51;;;;;;;0.08;0.08;;;;;;;;;;5094781;28;20134;-86
2022/01/26 05:18:17;;;;;;;0.52;0.52;;;;;;;;;;5094762;28;20544;-87
2022/01/26 05:20:43;;;;;;;0.10;0.10;;;;;;;;;;5094667;28;20096;-87
2022/01/26 05:23:09;;;;;;;0.10;0.10;;;;;;;;;;5094375;28;20043;-88
2022/01/26 05:25:35;;;;;;;0.10;0.10;;;;;;;;;;5094578;28;20417;-87
2022/01/26 05:28:01;;;;;;;0.10;0.10;;;;;;;;;;5077604;28;20032;-87
2022/01/26 05:30:27;;;;;;;0.10;0.10;;;;;;;;;;5094431;28;20066;-87
2022/01/26 05:32:53;;;;;;;0.10;0.10;;;;;;;;;;5094320;28;20046;-87
2022/01/26 05:35:19;;;;;;;0.35;0.35;;;;;;;;;;5111300;28;20050;-87
2022/01/26 05:37:45;;;;;;;0.10;0.10;;;;;;;;;;5094495;28;20047;-87
2022/01/26 05:40:12;;;;;;;0.10;0.10;;;;;;;;;;5111180;28;20043;-87
2022/01/26 05:42:38;;;;;;;0.10;0.10;;;;;;;;;;5111203;28;20451;-86
2022/01/26 05:45:07;;;;;;;0.10;0.10;;;;;;;;;;5077120;28;20043;-87
2022/01/26 05:47:34;;;;;;;0.10;0.10;;;;;;;;;;5077507;28;20051;-87
2022/01/26 05:50:00;;;;;;;0.20;0.20;;;;;;;;;;5111136;28;20042;-87
2022/01/26 05:52:26;;;;;;;0.10;0.10;;;;;;;;;;5093788;28;20040;-87
2022/01/26 05:54:52;;;;;;;0.17;0.17;;;;;;;;;;5111026;28;20039;-87
2022/01/26 05:57:18;;;;;;;0.10;0.10;;;;;;;;;;5094329;28;20045;-87
2022/01/26 05:59:44;;;;;;;0.00;0.00;;;;;;;;;;5094318;28;20047;-87
2022/01/26 06:02:10;;;;;;;0.10;0.10;;;;;;;;;;5093945;28;20088;-87
2022/01/26 06:04:36;;;;;;;0.10;0.10;;;;;;;;;;5093975;28;20100;-87
2022/01/26 06:07:02;;;;;;;0.00;0.00;;;;;;;;;;5094244;28;20122;-87
2022/01/26 06:09:28;;;;;;;0.10;0.10;;;;;;;;;;5094405;28;20098;-87
2022/01/26 06:11:54;;;;;;;0.10;0.10;;;;;;;;;;5094103;28;20494;-86
2022/01/26 06:14:20;;;;;;;0.30;0.30;;;;;;;;;;5094150;28;20035;-87
2022/01/26 06:16:46;;;;;;;0.00;0.00;;;;;;;;;;5110703;28;20511;-86
2022/01/26 06:19:12;;;;;;;0.00;0.00;;;;;;;;;;5110775;28;20059;-85
2022/01/26 06:21:38;;;;;;;0.10;0.10;;;;;;;;;;5094228;28;20183;-85
2022/01/26 06:24:04;;;;;;;0.10;0.10;;;;;;;;;;5077030;28;20040;-85
2022/01/26 06:26:30;;;;;;;0.10;0.10;;;;;;;;;;5110628;28;20050;-86
2022/01/26 06:28:56;;;;;;;0.10;0.10;;;;;;;;;;5110644;28;20070;-85
2022/01/26 06:31:26;;;;;;;0.10;0.10;;;;;;;;;;5093994;28;20132;-85
2022/01/26 06:33:52;;;;;;;0.10;0.10;;;;;;;;;;5094677;28;20047;-85
2022/01/26 06:36:18;;;;;;;0.08;0.08;;;;;;;;;;5111152;28;20039;-85
2022/01/26 06:38:46;;;;;;;0.20;0.20;;;;;;;;;;5093517;28;20044;-86
2022/01/26 06:41:12;;;;;;;0.10;0.10;;;;;;;;;;5093998;28;20497;-85
2022/01/26 06:43:48;;;;;;;0.00;0.00;;;;;;;;;;5093518;28;20036;-85
2022/01/26 06:46:22;;;;;;;0.00;0.00;;;;;;;;;;5078256;28;20047;-85
2022/01/26 06:49:03;;;;;;;0.10;0.10;;;;;;;;;;5095094;28;20050;-85
2022/01/26 06:51:29;;;;;;;0.10;0.10;;;;;;;;;;5095946;28;20100;-86
2022/01/26 06:53:55;;;;;;;0.10;0.10;;;;;;;;;;5093700;28;20035;-85
2022/01/26 06:56:21;;;;;;;0.00;0.00;;;;;;;;;;5110603;28;20043;-86
2022/01/26 06:58:47;;;;;;;0.10;0.10;;;;;;;;;;5075847;28;20032;-85
2022/01/26 07:01:13;;;;;;;0.10;0.10;;;;;;;;;;5093680;28;20100;-82
2022/01/26 07:03:39;;;;;;;0.22;0.22;;;;;;;;;;5095990;27;20040;-82
2022/01/26 07:06:05;;;;;;;0.10;0.10;;;;;;;;;;5117614;27;20035;-86
2022/01/26 07:08:32;;;;;;;0.10;0.10;;;;;;;;;;5100462;27;20035;-85
2022/01/26 07:10:59;;;;;;;0.08;0.08;;;;;;;;;;5117643;27;20054;-83
2022/01/26 07:13:26;;;;;;;0.10;0.10;;;;;;;;;;5100557;27;20062;-84
2022/01/26 07:23:50;;;;;;;1.55;0.15;;;;;;;;;;5117770;27;20118;-85
2022/01/26 07:26:16;;;;;;;0.20;0.20;;;;;;;;;;5100823;27;20045;-86
2022/01/26 07:28:42;;;;;;;0.10;0.10;;;;;;;;;;5100402;27;20038;-87
2022/01/26 07:31:08;;;;;;;0.10;0.10;;;;;;;;;;5100546;27;20038;-84
2022/01/26 07:33:35;;;;;;;0.10;0.10;;;;;;;;;;5099968;27;20031;-84
2022/01/26 07:36:01;;;;;;;0.70;0.63;;;;;;;;;;5115881;27;20050;-84
2022/01/26 07:38:27;;;;;;;0.00;0.00;;;;;;;;;;5100238;27;20122;-84
2022/01/26 07:40:53;;;;;;;0.10;0.10;;;;;;;;;;5100180;27;20114;-84
2022/01/26 07:43:19;;;;;;;0.10;0.10;;;;;;;;;;5116649;27;20057;-84
2022/01/26 07:45:45;;;;;;;0.10;0.10;;;;;;;;;;5116422;27;20043;-85
2022/01/26 07:48:11;;;;;;;0.10;0.10;;;;;;;;;;5099623;27;20043;-84
2022/01/26 07:50:37;;;;;;;0.10;0.10;;;;;;;;;;5099633;27;20094;-84
2022/01/26 07:53:03;;;;;;;0.10;0.10;;;;;;;;;;5099620;27;20050;-84
2022/01/26 07:55:30;;;;;;;0.10;0.10;;;;;;;;;;5116873;27;20051;-84
2022/01/26 07:57:57;;;;;;;0.00;0.00;;;;;;;;;;5099790;27;20426;-84
2022/01/26 08:00:23;;;;;;;0.22;0.08;;;;;;;;;;5116664;27;20465;-84
2022/01/26 08:02:49;;;;;;;0.00;0.00;;;;;;;;;;5099738;27;20050;-84
2022/01/26 08:05:15;;;;;;;0.32;0.20;;;;;;;;;;5099545;27;20051;-84
2022/01/26 08:07:42;;;;;;;1.23;0.55;;;;;;;;;;5134806;27;20118;-84
2022/01/26 08:10:08;;;;;;;0.22;0.22;;;;;;;;;;5099337;27;20489;-84
2022/01/26 08:12:36;;;;;;;0.22;0.22;;;;;;;;;;5099183;27;20046;-85
2022/01/26 08:15:02;;;;;;;0.20;0.20;;;;;;;;;;5098930;27;20393;-85
2022/01/26 08:17:28;;;;;;;0.10;0.10;;;;;;;;;;5099375;27;20095;-83
2022/01/26 08:19:56;;;;;;;0.25;0.25;;;;;;;;;;5116430;27;20039;-84
2022/01/26 08:22:23;;;;;;;0.10;0.10;;;;;;;;;;5116332;27;20075;-84
2022/01/26 08:24:50;;;;;;;0.00;0.00;;;;;;;;;;5116189;27;20043;-84
2022/01/26 08:27:18;;;;;;;0.30;0.30;;;;;;;;;;5098983;27;20046;-84
2022/01/26 08:29:50;;;;;;;0.10;0.10;;;;;;;;;;5098852;27;20405;-84
2022/01/26 08:32:16;;;;;;;0.10;0.10;;;;;;;;;;5099812;27;20035;-84
2022/01/26 08:34:43;;;;;;;0.52;0.52;;;;;;;;;;5098924;27;20039;-84
2022/01/26 08:37:09;;;;;;;0.20;0.20;;;;;;;;;;5115681;27;20485;-84
2022/01/26 08:39:35;;;;;;;0.10;0.10;;;;;;;;;;5115684;27;20050;-84
2022/01/26 08:42:01;;;;;;;0.10;0.10;;;;;;;;;;5098649;27;20035;-84
2022/01/26 08:44:27;;;;;;;0.10;0.10;;;;;;;;;;5115452;27;20504;-84
2022/01/26 08:46:54;;;;;;;0.10;0.10;;;;;;;;;;5115778;27;20397;-84
2022/01/26 08:49:21;;;;;;;0.10;0.10;;;;;;;;;;5098711;27;20118;-84
2022/01/26 08:51:49;;;;;;;0.10;0.10;;;;;;;;;;5115481;27;20117;-84
2022/01/26 08:54:15;;;;;;;0.10;0.10;;;;;;;;;;5098377;27;20041;-84
2022/01/26 08:56:41;;;;;;;0.10;0.10;;;;;;;;;;5115417;27;20039;-84
2022/01/26 08:59:07;;;;;;;0.30;0.30;;;;;;;;;;5098551;27;20043;-85
2022/01/26 09:01:33;;;;;;;0.05;0.05;;;;;;;;;;5098682;27;20046;-84
2022/01/26 09:03:59;;;;;;;0.00;0.00;;;;;;;;;;5098517;27;20046;-84
2022/01/26 09:06:25;;;;;;;0.43;0.30;;;;;;;;;;5115131;27;20039;-85
2022/01/26 09:08:59;;;;;;;0.10;0.10;;;;;;;;;;5098280;27;20134;-84
2022/01/26 09:11:25;;;;;;;0.00;0.00;;;;;;;;;;5082918;27;20035;-84
2022/01/26 09:13:57;;;;;;;0.40;0.30;;;;;;;;;;5098072;27;20070;-84
2022/01/26 09:16:24;;;;;;;0.10;0.10;;;;;;;;;;5115035;27;20091;-85
2022/01/26 09:18:53;;;;;;;0.10;0.10;;;;;;;;;;5097196;27;20054;-84
2022/01/26 09:21:19;;;;;;;0.10;0.10;;;;;;;;;;5081491;27;20051;-84
2022/01/26 09:23:45;;;;;;;0.20;0.20;;;;;;;;;;5114705;27;20119;-84
2022/01/26 09:26:11;;;;;;;0.10;0.10;;;;;;;;;;5114461;27;20081;-84
2022/01/26 09:28:37;;;;;;;0.28;0.28;;;;;;;;;;5080806;27;20100;-84
2022/01/26 09:31:03;;;;;;;0.13;0.10;;;;;;;;;;5081118;27;20039;-84
2022/01/26 09:33:29;;;;;;;0.15;0.13;;;;;;;;;;5114768;27;20372;-84
2022/01/26 09:35:55;;;;;;;0.10;0.10;;;;;;;;;;5097781;27;20039;-84
2022/01/26 09:38:21;;;;;;;0.20;0.20;;;;;;;;;;5081052;27;20126;-84
2022/01/26 09:40:47;;;;;;;0.00;0.00;;;;;;;;;;5114598;27;20051;-84
2022/01/26 09:43:14;;;;;;;0.10;0.10;;;;;;;;;;5097403;27;20092;-84
2022/01/26 09:45:39;;;;;;;0.20;0.20;;;;;;;;;;5097313;27;20054;-84
2022/01/26 09:48:08;;;;;;;0.10;0.10;;;;;;;;;;5097880;27;20061;-84
2022/01/26 09:50:34;;;;;;;0.00;0.00;;;;;;;;;;5114489;27;20081;-84
2022/01/26 09:53:00;;;;;;;0.00;0.00;;;;;;;;;;5097685;28;20065;-84
2022/01/26 09:55:26;;;;;;;0.10;0.10;;;;;;;;;;5097519;27;20043;-84
2022/01/26 09:57:58;;;;;;;0.28;0.28;;;;;;;;;;5114666;28;20100;-84
2022/01/26 10:00:27;;;;;;;0.20;0.20;;;;;;;;;;5098394;28;20047;-84
2022/01/26 10:03:00;;;;;;;0.00;0.00;;;;;;;;;;5114402;28;20370;-84
2022/01/26 10:05:26;;;;;;;0.15;0.10;;;;;;;;;;5114350;28;20035;-84
2022/01/26 10:15:40;;;;;;;0.10;0.10;;;;;;;;;;5132727;28;20039;-85
2022/01/26 10:18:11;;;;;;;0.10;0.10;;;;;;;;;;5097807;28;20122;-84
2022/01/26 10:20:38;;;;;;;0.10;0.10;;;;;;;;;;5114291;28;20137;-84
2022/01/26 10:23:08;;;;;;;0.10;0.10;;;;;;;;;;5114027;28;20039;-85
2022/01/26 10:25:34;;;;;;;0.73;0.73;;;;;;;;;;5080585;28;20092;-84
2022/01/26 10:28:00;;;;;;;0.10;0.10;;;;;;;;;;5114270;28;20038;-84
2022/01/26 10:30:26;;;;;;;0.10;0.10;;;;;;;;;;5114293;28;20042;-85
2022/01/26 10:32:52;;;;;;;0.10;0.10;;;;;;;;;;5097002;28;20118;-84
2022/01/26 10:35:18;;;;;;;0.32;0.32;;;;;;;;;;5097307;28;20089;-84
2022/01/26 10:37:53;;;;;;;0.10;0.10;;;;;;;;;;5114648;27;20423;-84
2022/01/26 10:40:24;;;;;;;0.20;0.20;;;;;;;;;;5101013;27;20051;-84
2022/01/26 10:43:04;;;;;;;0.10;0.10;;;;;;;;;;5101356;27;20035;-84
2022/01/26 10:45:36;;;;;;;0.25;0.10;;;;;;;;;;5117744;27;20051;-84
2022/01/26 10:49:05;;;;;;;0.00;0.00;;;;;;;;;;5084730;27;20050;-84
2022/01/26 10:53:47;;;;;;;0.13;0.13;;;;;;;;;;5117841;27;20443;-84
2022/01/26 10:56:13;;;;;;;0.10;0.10;;;;;;;;;;5118016;27;20043;-84
2022/01/26 10:58:39;;;;;;;0.10;0.10;;;;;;;;;;5083938;27;20051;-84
2022/01/26 11:01:06;;;;;;;0.10;0.10;;;;;;;;;;5117981;27;20039;-84
2022/01/26 11:03:32;;;;;;;0.10;0.10;;;;;;;;;;5100821;27;20477;-84
2022/01/26 11:05:58;;;;;;;0.00;0.00;;;;;;;;;;5100743;27;20047;-84
2022/01/26 11:08:24;;;;;;;0.08;0.08;;;;;;;;;;5100226;27;20067;-84
2022/01/26 11:10:50;;;;;;;0.10;0.10;;;;;;;;;;5083592;27;20045;-84
2022/01/26 11:13:26;;;;;;;0.10;0.10;;;;;;;;;;5100297;27;20122;-84
2022/01/26 11:15:52;;;;;;;0.10;0.10;;;;;;;;;;5117213;27;20552;-84
2022/01/26 11:18:27;;;;;;;0.20;0.20;;;;;;;;;;5100266;27;20070;-84
2022/01/26 11:20:54;;;;;;;0.10;0.10;;;;;;;;;;5101284;27;20054;-84
2022/01/26 11:23:36;;;;;;;0.10;0.10;;;;;;;;;;5100119;27;20092;-85
2022/01/26 11:26:02;;;;;;;0.10;0.10;;;;;;;;;;5117214;27;20057;-84
2022/01/26 11:28:28;;;;;;;1.27;0.25;;;;;;;;;;5083053;27;20126;-84
2022/01/26 11:30:58;;;;;;;1.08;0.38;;;;;;;;;;5100095;27;20039;-84
2022/01/26 11:33:26;;;;;;;0.77;0.30;;;;;;;;;;5099731;27;20047;-84
2022/01/26 11:35:53;;;;;;;0.00;0.00;;;;;;;;;;5117174;27;20046;-84
2022/01/26 11:46:55;;;;;;;0.10;0.10;;;;;;;;;;5119489;27;20059;-84
2022/01/26 11:49:24;;;;;;;0.50;0.22;;;;;;;;;;5099373;27;20046;-84
2022/01/26 11:51:51;;;;;;;0.47;0.47;;;;;;;;;;5116394;27;20157;-85
2022/01/26 11:54:22;;;;;;;0.10;0.10;;;;;;;;;;5116302;27;20039;-84
2022/01/26 11:56:55;;;;;;;0.10;0.10;;;;;;;;;;5099510;27;20477;-84
2022/01/26 11:59:23;;;;;;;0.10;0.10;;;;;;;;;;5099737;27;20134;-84
2022/01/26 12:01:56;;;;;;;0.20;0.20;;;;;;;;;;5082715;27;20043;-85
2022/01/26 12:04:24;;;;;;;0.60;0.60;;;;;;;;;;5116228;27;20089;-84
2022/01/26 12:06:57;;;;;;;0.10;0.10;;;;;;;;;;5082562;27;20046;-84
2022/01/26 12:09:24;;;;;;;0.10;0.10;;;;;;;;;;5116580;27;20039;-84
2022/01/26 12:11:54;;;;;;;0.10;0.10;;;;;;;;;;5099146;27;20035;-85
2022/01/26 12:14:21;;;;;;;0.03;0.03;;;;;;;;;;5082457;27;20211;-84
2022/01/26 12:16:49;;;;;;;1.65;0.20;;;;;;;;;;5082740;27;20047;-85
2022/01/26 12:38:32;;;;;;;0.40;0.40;;;;;;;;;;5118701;27;20043;-84
2022/01/26 12:43:47;;;;;;;0.50;0.30;;;;;;;;;;5115297;27;20046;-85
2022/01/26 12:46:23;;;;;;;0.10;0.10;;;;;;;;;;5115543;27;20191;-84
2022/01/26 12:48:50;;;;;;;0.10;0.10;;;;;;;;;;5098688;27;20115;-84
2022/01/26 12:51:16;;;;;;;0.68;0.20;;;;;;;;;;5098646;27;20039;-85
2022/01/26 12:53:41;;;;;;;0.15;0.15;;;;;;;;;;5081914;27;20362;-84
2022/01/26 12:56:08;;;;;;;0.10;0.10;;;;;;;;;;5115569;27;20122;-84
2022/01/26 12:58:35;;;;;;;0.10;0.10;;;;;;;;;;5098231;27;20156;-84
2022/01/26 13:01:06;;;;;;;0.10;0.10;;;;;;;;;;5114780;28;20114;-84
2022/01/26 13:03:39;;;;;;;0.13;0.13;;;;;;;;;;5114955;27;20367;-84
2022/01/26 13:06:06;;;;;;;0.10;0.10;;;;;;;;;;5098031;27;20031;-84
2022/01/26 13:08:50;;;;;;;0.00;0.00;;;;;;;;;;5098479;27;20130;-84
2022/01/26 13:11:23;;;;;;;0.20;0.20;;;;;;;;;;5115204;27;20485;-84
2022/01/26 13:13:50;;;;;;;0.20;0.20;;;;;;;;;;5114924;27;20092;-84
2022/01/26 13:16:22;;;;;;;0.10;0.10;;;;;;;;;;5098061;27;20107;-84
2022/01/26 13:19:28;;;;;;;1.77;0.85;;;;;;;;;;5115319;27;20218;-84
2022/01/26 13:22:24;;;;;;;0.35;0.30;;;;;;;;;;5099572;27;20047;-84
2022/01/26 13:25:01;;;;;;;0.20;0.20;;;;;;;;;;5132732;27;20058;-84
2022/01/26 13:30:12;;;;;;;0.10;0.10;;;;;;;;;;5114911;27;20490;-84
2022/01/26 13:38:01;;;;;;;0.20;0.20;;;;;;;;;;5114724;27;20085;-84
2022/01/26 13:40:46;;;;;;;0.50;0.40;;;;;;;;;;5100055;27;20058;-84
2022/01/26 13:51:45;;;;;;;0.10;0.10;;;;;;;;;;5097618;27;20043;-84
2022/01/26 14:01:45;;;;;;;0.10;0.10;;;;;;;;;;5115263;28;20053;-84
2022/01/26 14:04:16;;;;;;;0.10;0.10;;;;;;;;;;5081416;28;20120;-84
2022/01/26 14:06:42;;;;;;;0.20;0.20;;;;;;;;;;5114385;28;20244;-84
2022/01/26 14:09:08;;;;;;;0.10;0.10;;;;;;;;;;5097392;28;20039;-84
2022/01/26 14:11:34;;;;;;;0.10;0.10;;;;;;;;;;5114305;28;20550;-84
2022/01/26 14:14:01;;;;;;;0.10;0.10;;;;;;;;;;5099909;27;20047;-84
2022/01/26 14:16:30;;;;;;;0.10;0.10;;;;;;;;;;5118550;27;20047;-84
2022/01/26 14:19:08;;;;;;;0.10;0.10;;;;;;;;;;5101952;27;20167;-84
2022/01/26 14:22:06;;;;;;;0.40;0.40;;;;;;;;;;5101443;27;20516;-84
2022/01/26 14:24:34;;;;;;;0.32;0.32;;;;;;;;;;5122706;27;20043;-84
2022/01/26 14:27:03;;;;;;;1.10;0.40;;;;;;;;;;5136711;27;20393;-84
2022/01/26 14:32:28;;;;;;;0.10;0.10;;;;;;;;;;5101544;27;20137;-84
2022/01/26 14:35:22;;;;;;;0.32;0.10;;;;;;;;;;5118264;27;20039;-84
2022/01/26 14:54:26;;;;;;;2.50;0.82;;;;;;;;;;5103423;27;20466;-84
2022/01/26 15:12:00;;;;;;;0.10;0.10;;;;;;;;;;5117225;27;20035;-85
2022/01/26 15:33:15;;;;;;;0.00;0.00;;;;;;;;;;5099611;27;20499;-85
2022/01/26 15:44:41;;;;;;;0.10;0.10;;;;;;;;;;5054738;28;20572;-87
2022/01/26 16:05:53;;;;;;;0.10;0.10;;;;;;;;;;5103129;27;20043;-87
2022/01/26 16:08:25;;;;;;;0.10;0.10;;;;;;;;;;5115966;27;20039;-88
2022/01/26 16:21:48;;;;;;;0.10;0.10;;;;;;;;;;5101366;27;20039;-85
2022/01/26 16:38:21;;;;;;;0.10;0.10;;;;;;;;;;5095732;27;20035;-85
2022/01/26 18:13:04;;;;;;;0.60;0.35;;;;;;;;;;5097680;28;20461;-86
2022/01/26 18:31:52;;;;;;;0.10;0.10;;;;;;;;;;5096962;28;20346;-84
2022/01/26 18:32:03;;;;;;;0.10;0.10;;;;;;;;;;5099572;28;20047;-84
2022/01/26 18:50:57;;;;;;;0.25;0.25;;;;;;;;;;5099431;28;20039;-82
2022/01/26 18:53:22;;;;;;;0.10;0.10;;;;;;;;;;5113462;28;20140;-84
2022/01/26 18:55:48;;;;;;;4.30;0.32;;;;;;;;;;5096672;28;20127;-83
2022/01/26 18:58:14;;;;;;;2.55;0.20;;;;;;;;;;5113960;28;20043;-85
2022/01/26 19:00:44;;;;;;;1.05;1.05;;;;;;;;;;5100007;27;20502;-85
2022/01/26 19:03:10;;;;;;;0.10;0.10;;;;;;;;;;5100251;27;20123;-85
2022/01/26 19:05:36;;;;;;;0.10;0.10;;;;;;;;;;5117358;27;20225;-84
2022/01/26 19:08:02;;;;;;;0.10;0.10;;;;;;;;;;5117429;27;20211;-85
2022/01/26 19:10:28;;;;;;;0.20;0.20;;;;;;;;;;5100120;27;20039;-85
2022/01/26 19:12:55;;;;;;;0.10;0.10;;;;;;;;;;5117113;27;20446;-84
2022/01/26 19:15:24;;;;;;;0.10;0.10;;;;;;;;;;5117043;27;20046;-84
2022/01/26 19:17:59;;;;;;;0.32;0.32;;;;;;;;;;5099912;27;20039;-85
2022/01/26 19:20:54;;;;;;;0.20;0.20;;;;;;;;;;5084780;27;20054;-84
2022/01/26 19:23:29;;;;;;;0.10;0.10;;;;;;;;;;5102283;27;20118;-85
2022/01/26 19:26:04;;;;;;;0.10;0.10;;;;;;;;;;5099917;27;20482;-85
2022/01/26 19:28:36;;;;;;;0.20;0.15;;;;;;;;;;5084331;27;20043;-86
2022/01/26 19:43:02;;;;;;;0.20;0.20;;;;;;;;;;5102304;27;20126;-86
2022/01/26 19:45:05;;;;;;;0.10;0.10;;;;;;;;;;5103495;27;20059;-85
2022/01/26 19:52:55;;;;;;;0.10;0.10;;;;;;;;;;5119241;27;20441;-87
2022/01/26 19:55:21;;;;;;;0.10;0.10;;;;;;;;;;5099149;27;20045;-86
2022/01/26 19:57:47;;;;;;;0.10;0.10;;;;;;;;;;5134618;27;20391;-87
2022/01/26 20:00:13;;;;;;;0.20;0.20;;;;;;;;;;5116310;27;20062;-86
2022/01/26 20:02:39;;;;;;;0.10;0.10;;;;;;;;;;5099235;27;20039;-87
2022/01/26 20:05:08;;;;;;;0.10;0.10;;;;;;;;;;5116545;27;20043;-87
2022/01/26 20:07:34;;;;;;;0.10;0.10;;;;;;;;;;5100088;27;20043;-87
2022/01/26 20:10:03;;;;;;;0.63;0.30;;;;;;;;;;5099122;27;20599;-87
2022/01/26 20:12:59;;;;;;;0.10;0.10;;;;;;;;;;5115592;27;20064;-86
2022/01/26 20:15:15;;;;;;;0.45;0.45;;;;;;;;;;5115581;27;20126;-87
2022/01/26 20:17:44;;;;;;;0.10;0.10;;;;;;;;;;5099288;27;20123;-86
2022/01/26 20:20:15;;;;;;;0.22;0.22;;;;;;;;;;5116007;27;20088;-86
2022/01/26 20:22:41;;;;;;;0.10;0.10;;;;;;;;;;5115728;27;20051;-87
2022/01/26 20:25:07;;;;;;;0.20;0.20;;;;;;;;;;5082530;27;20043;-87
2022/01/26 20:27:36;;;;;;;0.10;0.10;;;;;;;;;;5115900;27;20043;-87
2022/01/26 20:30:03;;;;;;;0.10;0.10;;;;;;;;;;5098803;27;20095;-86
2022/01/26 20:32:29;;;;;;;0.10;0.10;;;;;;;;;;5081681;27;20043;-86
2022/01/26 20:34:55;;;;;;;0.47;0.47;;;;;;;;;;5098667;27;20042;-89
2022/01/26 20:37:21;;;;;;;0.10;0.10;;;;;;;;;;5098967;27;20031;-87
2022/01/26 20:39:47;;;;;;;0.30;0.30;;;;;;;;;;5098768;27;20118;-87
2022/01/26 20:42:13;;;;;;;0.20;0.20;;;;;;;;;;5081881;27;20461;-84
2022/01/26 20:44:39;;;;;;;0.10;0.10;;;;;;;;;;5115345;27;20437;-84
2022/01/26 20:47:05;;;;;;;1.10;0.43;;;;;;;;;;5115443;27;20085;-87
2022/01/26 20:49:31;;;;;;;0.32;0.20;;;;;;;;;;5081637;27;20096;-87
2022/01/26 20:51:57;;;;;;;0.20;0.20;;;;;;;;;;5081614;27;20105;-85
2022/01/26 20:54:23;;;;;;;0.10;0.10;;;;;;;;;;5115300;27;20547;-86
2022/01/26 20:56:49;;;;;;;0.30;0.30;;;;;;;;;;5081597;27;20043;-88
2022/01/26 20:59:15;;;;;;;0.17;0.17;;;;;;;;;;5093278;28;20039;-85
2022/01/26 21:01:41;;;;;;;0.15;0.15;;;;;;;;;;5081152;27;20118;-86
2022/01/26 21:04:07;;;;;;;0.38;0.28;;;;;;;;;;5081630;27;20043;-86
2022/01/26 21:06:33;;;;;;;0.43;0.43;;;;;;;;;;5097816;27;20047;-85
2022/01/26 21:08:59;;;;;;;0.10;0.10;;;;;;;;;;5081198;27;20213;-85
2022/01/26 21:11:26;;;;;;;0.10;0.10;;;;;;;;;;5097917;27;20504;-85
2022/01/26 21:13:54;;;;;;;0.57;0.40;;;;;;;;;;5114854;27;20039;-85
2022/01/26 21:16:21;;;;;;;0.20;0.20;;;;;;;;;;5097714;27;20039;-86
2022/01/26 21:18:47;;;;;;;0.10;0.10;;;;;;;;;;5114372;27;20039;-85
2022/01/26 21:21:13;;;;;;;0.45;0.45;;;;;;;;;;5114661;27;20070;-86
2022/01/26 21:23:39;;;;;;;0.22;0.20;;;;;;;;;;5113666;27;20038;-85
2022/01/26 21:26:05;;;;;;;0.15;0.15;;;;;;;;;;5114654;27;20162;-86
2022/01/26 21:28:32;;;;;;;0.10;0.10;;;;;;;;;;5098010;27;20039;-86
2022/01/26 21:30:58;;;;;;;0.40;0.40;;;;;;;;;;5114718;27;20126;-84
2022/01/26 21:33:26;;;;;;;0.22;0.22;;;;;;;;;;5114410;27;20082;-87
2022/01/26 21:35:52;;;;;;;0.10;0.10;;;;;;;;;;5098136;27;20047;-86